Time;durP1;ratioP1;P1;durP2;ratioP2;P2;SDS_P1;SDS_P2;PMS_P1;PMS_P2;Temp;Humidity;BMP_temperature;BMP_pressure;BME280_temperature;BME280_humidity;BME280_pressure;Samples;Min_cycle;Max_cycle;Signal;HPM_P1;HPM_P2
2021/11/28 00:09:43;;;;;;;67.3;75.2;;;;;;;3.4;81.3;96930;;;;
2021/11/28 00:19:35;;;;;;;67.3;75.2;;;;;;;3.3;82;96910;;;;
2021/11/28 00:29:35;;;;;;;67.3;75.2;;;;;;;3;82.8;96910;;;;
2021/11/28 00:40:35;;;;;;;62.9;76.2;;;;;;;3;82.5;96910;;;;
2021/11/28 00:51:37;;;;;;;62.9;76.2;;;;;;;3;82.1;96910;;;;
2021/11/28 01:01:35;;;;;;;62.9;76.2;;;;;;;2.9;81.9;96910;;;;
2021/11/28 01:11:35;;;;;;;50.2;55.9;;;;;;;2.8;81.3;96910;;;;
2021/11/28 01:21:37;;;;;;;50.2;55.9;;;;;;;2.7;81.4;96910;;;;
2021/11/28 01:31:35;;;;;;;50.2;55.9;;;;;;;2.5;81.5;96900;;;;
2021/11/28 01:42:35;;;;;;;57;68;;;;;;;2.5;81.3;96910;;;;
2021/11/28 01:52:36;;;;;;;57;68;;;;;;;2.6;81.7;96910;;;;
2021/11/28 02:02:36;;;;;;;57;68;;;;;;;2.5;82.5;96920;;;;
2021/11/28 02:12:36;;;;;;;54.2;62.8;;;;;;;2.6;82.5;96920;;;;
2021/11/28 02:23:35;;;;;;;54.2;62.8;;;;;;;2.5;82.8;96910;;;;
2021/11/28 02:34:36;;;;;;;54.2;62.8;;;;;;;2.7;82.9;96930;;;;
2021/11/28 02:44:35;;;;;;;53.6;60.4;;;;;;;2.6;82.1;96940;;;;
2021/11/28 02:55:35;;;;;;;53.6;60.4;;;;;;;2.7;82.3;96950;;;;
2021/11/28 03:06:35;;;;;;;50.9;57.9;;;;;;;2.9;82;96940;;;;
2021/11/28 03:16:36;;;;;;;50.9;57.9;;;;;;;2.9;82;96910;;;;
2021/11/28 03:27:35;;;;;;;50.9;57.9;;;;;;;2.9;82.2;96910;;;;
2021/11/28 03:37:36;;;;;;;55.7;66.2;;;;;;;2.8;82.5;96940;;;;
2021/11/28 03:47:36;;;;;;;55.7;66.2;;;;;;;2.9;82.6;96960;;;;
2021/11/28 03:58:36;;;;;;;55.7;66.2;;;;;;;2.8;82.7;96960;;;;
2021/11/28 04:09:35;;;;;;;59.4;71.8;;;;;;;2.9;82.5;96950;;;;
2021/11/28 04:19:36;;;;;;;59.4;71.8;;;;;;;3;82.7;96940;;;;
2021/11/28 04:30:35;;;;;;;59.4;71.8;;;;;;;3.1;82;96930;;;;
2021/11/28 04:40:36;;;;;;;58.3;67.9;;;;;;;3.3;82.5;96910;;;;
2021/11/28 04:51:36;;;;;;;58.3;67.9;;;;;;;3.2;82.9;96890;;;;
2021/11/28 05:02:36;;;;;;;58.3;67.9;;;;;;;3.3;81.8;96890;;;;
2021/11/28 05:12:36;;;;;;;62;76.6;;;;;;;3.4;81.6;96900;;;;
2021/11/28 05:22:36;;;;;;;62;76.6;;;;;;;3.2;81.8;96920;;;;
2021/11/28 05:33:36;;;;;;;62;76.6;;;;;;;3.4;81.9;96920;;;;
2021/11/28 05:43:38;;;;;;;57.3;73.1;;;;;;;3.4;81.7;96900;;;;
2021/11/28 05:53:36;;;;;;;57.3;73.1;;;;;;;3.5;81.3;96900;;;;
2021/11/28 06:04:36;;;;;;;55.1;69.1;;;;;;;3.6;80.8;96890;;;;
2021/11/28 06:14:36;;;;;;;55.1;69.1;;;;;;;3.3;81.3;96900;;;;
2021/11/28 06:24:38;;;;;;;55.1;69.1;;;;;;;3.2;82.1;96900;;;;
2021/11/28 06:34:36;;;;;;;58.3;71.9;;;;;;;3.4;81.5;96890;;;;
2021/11/28 06:45:36;;;;;;;58.3;71.9;;;;;;;3.1;82.4;96880;;;;
2021/11/28 06:55:36;;;;;;;58.3;71.9;;;;;;;3.1;83.1;96870;;;;
2021/11/28 07:05:36;;;;;;;54.5;69.3;;;;;;;3;83.4;96860;;;;
2021/11/28 07:16:36;;;;;;;54.5;69.3;;;;;;;3.1;83;96860;;;;
2021/11/28 07:27:36;;;;;;;54.5;69.3;;;;;;;3.1;83.1;96850;;;;
2021/11/28 07:37:36;;;;;;;55;64.2;;;;;;;3.1;83.4;96850;;;;
2021/11/28 07:47:36;;;;;;;55;64.2;;;;;;;3.4;83.1;96840;;;;
2021/11/28 07:57:36;;;;;;;55;64.2;;;;;;;3.9;82.1;96850;;;;
2021/11/28 08:08:36;;;;;;;53;67.8;;;;;;;4.3;81.4;96850;;;;
2021/11/28 08:18:36;;;;;;;53;67.8;;;;;;;4.3;80.6;96850;;;;
2021/11/28 08:28:36;;;;;;;53;67.8;;;;;;;4.3;81.2;96840;;;;
2021/11/28 08:38:42;;;;;;;62.8;74.7;;;;;;;4.4;80.3;96830;;;;
2021/11/28 08:49:36;;;;;;;62.8;74.7;;;;;;;4.6;79.7;96820;;;;
2021/11/28 08:59:36;;;;;;;62.8;74.7;;;;;;;4.8;79.1;96840;;;;
2021/11/28 09:09:36;;;;;;;61.8;72.6;;;;;;;4.3;80.3;96840;;;;
2021/11/28 09:20:38;;;;;;;61.8;72.6;;;;;;;4.5;79.3;96830;;;;
2021/11/28 09:30:36;;;;;;;61.8;72.6;;;;;;;4.6;78.9;96820;;;;
2021/11/28 09:41:36;;;;;;;66.2;78.7;;;;;;;4.8;78.6;96810;;;;
2021/11/28 09:51:36;;;;;;;66.2;78.7;;;;;;;5.1;78;96780;;;;
2021/11/28 10:01:36;;;;;;;66.2;78.7;;;;;;;4.9;77.6;96760;;;;
2021/11/28 10:11:36;;;;;;;50.3;58.7;;;;;;;5;77.1;96730;;;;
2021/11/28 10:22:36;;;;;;;50.3;58.7;;;;;;;5.5;75.7;96740;;;;
2021/11/28 10:32:36;;;;;;;50.3;58.7;;;;;;;5.4;76.5;96720;;;;
2021/11/28 10:43:36;;;;;;;44.6;53;;;;;;;5.5;75.4;96690;;;;
2021/11/28 10:53:37;;;;;;;44.6;53;;;;;;;5.3;75.5;96680;;;;
2021/11/28 11:04:36;;;;;;;34;39.1;;;;;;;5.2;75.9;96680;;;;
2021/11/28 11:15:36;;;;;;;34;39.1;;;;;;;5.2;76.4;96670;;;;
2021/11/28 11:25:36;;;;;;;34;39.1;;;;;;;5.1;76.4;96660;;;;
2021/11/28 11:36:36;;;;;;;36.9;45.5;;;;;;;5.1;76.6;96650;;;;
2021/11/28 11:46:36;;;;;;;36.9;45.5;;;;;;;5;76.7;96650;;;;
2021/11/28 11:57:36;;;;;;;36.9;45.5;;;;;;;4.9;76.9;96650;;;;
2021/11/28 12:08:36;;;;;;;38.1;42.5;;;;;;;4.8;77.2;96640;;;;
2021/11/28 12:18:36;;;;;;;38.1;42.5;;;;;;;4.6;78.2;96630;;;;
2021/11/28 12:29:36;;;;;;;38.1;42.5;;;;;;;4.5;78.9;96610;;;;
2021/11/28 12:39:36;;;;;;;34.2;41;;;;;;;4.4;80.3;96570;;;;
2021/11/28 12:50:36;;;;;;;34.2;41;;;;;;;4.2;81.5;96560;;;;
2021/11/28 13:01:36;;;;;;;34.2;41;;;;;;;4.4;81.6;96520;;;;
2021/11/28 13:11:37;;;;;;;39.9;45.3;;;;;;;4.4;82.1;96530;;;;
2021/11/28 13:21:36;;;;;;;39.9;45.3;;;;;;;4.4;82;96520;;;;
2021/11/28 13:32:36;;;;;;;39.9;45.3;;;;;;;4.5;82.5;96520;;;;
2021/11/28 13:42:36;;;;;;;38;43.6;;;;;;;4.4;82.5;96520;;;;
2021/11/28 13:52:36;;;;;;;38;43.6;;;;;;;4.7;82.1;96520;;;;
2021/11/28 14:02:38;;;;;;;38;43.6;;;;;;;4.7;82;96500;;;;
2021/11/28 14:13:36;;;;;;;37;42.6;;;;;;;4.6;82.4;96470;;;;
2021/11/28 14:23:36;;;;;;;37;42.6;;;;;;;4.5;82.7;96470;;;;
2021/11/28 14:33:36;;;;;;;40.3;47.2;;;;;;;4.6;82.5;96460;;;;
2021/11/28 14:43:36;;;;;;;40.3;47.2;;;;;;;4.5;82.8;96460;;;;
2021/11/28 14:54:36;;;;;;;40.3;47.2;;;;;;;4.7;82.3;96440;;;;
2021/11/28 15:05:36;;;;;;;40.8;46.8;;;;;;;4.7;82.8;96450;;;;
2021/11/28 15:15:36;;;;;;;40.8;46.8;;;;;;;4.9;81.7;96460;;;;
2021/11/28 15:26:36;;;;;;;40.8;46.8;;;;;;;5.1;81.4;96440;;;;
2021/11/28 15:37:36;;;;;;;43.3;52.5;;;;;;;5.2;81.2;96480;;;;
2021/11/28 15:48:36;;;;;;;43.3;52.5;;;;;;;5.2;80.9;96490;;;;
2021/11/28 15:58:36;;;;;;;43.3;52.5;;;;;;;5.4;81;96480;;;;
2021/11/28 16:09:36;;;;;;;46;54.7;;;;;;;5.4;80.8;96480;;;;
2021/11/28 16:19:36;;;;;;;46;54.7;;;;;;;5.4;80.6;96470;;;;
2021/11/28 16:29:38;;;;;;;46;54.7;;;;;;;5.3;80.9;96470;;;;
2021/11/28 16:40:36;;;;;;;56.7;69.5;;;;;;;5.4;80.5;96460;;;;
2021/11/28 16:50:36;;;;;;;56.7;69.5;;;;;;;5.3;80.5;96460;;;;
2021/11/28 17:01:36;;;;;;;56.7;69.5;;;;;;;5.3;80.8;96450;;;;
2021/11/28 17:11:40;;;;;;;46.6;57.3;;;;;;;5.4;80.7;96460;;;;
2021/11/28 17:21:37;;;;;;;46.6;57.3;;;;;;;5.5;80.4;96410;;;;
2021/11/28 17:32:36;;;;;;;53;65.5;;;;;;;5.4;80.5;96420;;;;
2021/11/28 17:42:36;;;;;;;53;65.5;;;;;;;5.5;80.4;96410;;;;
2021/11/28 17:53:36;;;;;;;53;65.5;;;;;;;5.5;80.1;96420;;;;
2021/11/28 18:04:36;;;;;;;60.4;70.1;;;;;;;5.3;80.2;96420;;;;
2021/11/28 18:14:36;;;;;;;60.4;70.1;;;;;;;5.3;80.5;96400;;;;
2021/11/28 18:25:37;;;;;;;60.4;70.1;;;;;;;5.3;80.2;96380;;;;
2021/11/28 18:35:36;;;;;;;60.5;71.3;;;;;;;5.2;80.9;96390;;;;
2021/11/28 18:45:36;;;;;;;60.5;71.3;;;;;;;5.2;81;96390;;;;
2021/11/28 18:56:36;;;;;;;60.5;71.3;;;;;;;5.1;80.9;96400;;;;
2021/11/28 19:06:36;;;;;;;63.2;85;;;;;;;5;81.3;96420;;;;
2021/11/28 19:16:36;;;;;;;63.2;85;;;;;;;4.9;81.4;96430;;;;
2021/11/28 19:27:36;;;;;;;63.2;85;;;;;;;4.9;81.6;96470;;;;
2021/11/28 19:37:36;;;;;;;55.3;69;;;;;;;4.9;81.6;96470;;;;
2021/11/28 19:48:36;;;;;;;55.3;69;;;;;;;4.8;81.7;96480;;;;
2021/11/28 19:58:38;;;;;;;55.3;69;;;;;;;4.7;82;96480;;;;
2021/11/28 20:09:36;;;;;;;68.4;82.7;;;;;;;4.5;82.7;96480;;;;
2021/11/28 20:19:36;;;;;;;68.4;82.7;;;;;;;4.4;83;96490;;;;
2021/11/28 20:29:36;;;;;;;68.4;82.7;;;;;;;3.9;82.6;96490;;;;
2021/11/28 20:39:36;;;;;;;72.6;87.4;;;;;;;3.6;82.3;96490;;;;
2021/11/28 20:50:36;;;;;;;72.6;87.4;;;;;;;3.4;82.5;96500;;;;
2021/11/28 21:01:36;;;;;;;72.6;87.4;;;;;;;3.4;82.5;96520;;;;
2021/11/28 21:12:36;;;;;;;61;75.9;;;;;;;3;83.1;96520;;;;
2021/11/28 21:23:36;;;;;;;61;75.9;;;;;;;2.7;83;96510;;;;
2021/11/28 21:33:37;;;;;;;59;71.9;;;;;;;2.7;82.9;96530;;;;
2021/11/28 21:44:36;;;;;;;59;71.9;;;;;;;2.5;82.1;96520;;;;
2021/11/28 21:54:36;;;;;;;59;71.9;;;;;;;2.3;82;96500;;;;
2021/11/28 22:04:36;;;;;;;46.9;59.7;;;;;;;2.2;81.1;96500;;;;
2021/11/28 22:14:36;;;;;;;46.9;59.7;;;;;;;2.1;81.4;96520;;;;
2021/11/28 22:25:36;;;;;;;46.9;59.7;;;;;;;2.3;81.9;96530;;;;
2021/11/28 22:35:36;;;;;;;39.1;46.2;;;;;;;2.1;81.6;96520;;;;
2021/11/28 22:45:36;;;;;;;39.1;46.2;;;;;;;2;81.8;96530;;;;
2021/11/28 22:56:36;;;;;;;39.1;46.2;;;;;;;2;81.7;96490;;;;
2021/11/28 23:06:36;;;;;;;40.8;51.6;;;;;;;1.9;82;96500;;;;
2021/11/28 23:16:37;;;;;;;40.8;51.6;;;;;;;1.8;82.4;96520;;;;
2021/11/28 23:26:36;;;;;;;40.8;51.6;;;;;;;1.7;82.6;96520;;;;
2021/11/28 23:36:36;;;;;;;33.3;40.8;;;;;;;1.8;82.8;96540;;;;
2021/11/28 23:47:36;;;;;;;33.3;40.8;;;;;;;1.8;82.6;96530;;;;
2021/11/28 23:57:36;;;;;;;33.3;40.8;;;;;;;1.7;83.1;96530;;;;
